Time;durP1;ratioP1;P1;durP2;ratioP2;P2;SDS_P1;SDS_P2;PMS_P1;PMS_P2;Temp;Humidity;BMP_temperature;BMP_pressure;BME280_temperature;BME280_humidity;BME280_pressure;Samples;Min_cycle;Max_cycle;Signal;HPM_P1;HPM_P2
2020/12/11 00:01:13;;;;;;;;;;;20.20;34.70;;;;;;484184;246;1188;-70
2020/12/11 00:03:15;;;;;;;;;;;20.30;34.60;;;;;;484070;246;965;-70
2020/12/11 00:05:16;;;;;;;;;;;20.20;34.70;;;;;;484126;246;1042;-70
2020/12/11 00:07:17;;;;;;;;;;;20.30;34.70;;;;;;484161;246;1171;-70
2020/12/11 00:09:18;;;;;;;;;;;20.30;34.70;;;;;;484177;246;988;-70
2020/12/11 00:11:22;;;;;;;;;;;20.30;34.20;;;;;;484148;246;1276;-70
2020/12/11 00:13:21;;;;;;;;;;;20.30;34.50;;;;;;484014;246;2195;-70
2020/12/11 00:15:22;;;;;;;;;;;20.30;34.80;;;;;;484187;246;2200;-70
2020/12/11 00:17:26;;;;;;;;;;;20.30;34.70;;;;;;484174;246;948;-70
2020/12/11 00:19:25;;;;;;;;;;;20.30;34.80;;;;;;484090;246;2470;-70
2020/12/11 00:21:26;;;;;;;;;;;20.30;34.80;;;;;;484144;246;1360;-70
2020/12/11 00:23:28;;;;;;;;;;;20.40;34.80;;;;;;484158;246;1086;-70
2020/12/11 00:25:31;;;;;;;;;;;20.30;34.80;;;;;;484135;246;974;-70
2020/12/11 00:27:30;;;;;;;;;;;20.30;34.80;;;;;;483997;246;2209;-70
2020/12/11 00:29:32;;;;;;;;;;;20.30;34.80;;;;;;484124;246;1001;-70
2020/12/11 00:31:33;;;;;;;;;;;20.30;34.80;;;;;;484169;246;1190;-70
2020/12/11 00:33:34;;;;;;;;;;;20.30;34.80;;;;;;484130;246;1033;-70
2020/12/11 00:35:35;;;;;;;;;;;20.30;34.80;;;;;;484142;246;2184;-70
2020/12/11 00:37:37;;;;;;;;;;;20.40;34.70;;;;;;484102;246;982;-70
2020/12/11 00:39:38;;;;;;;;;;;20.30;34.70;;;;;;484110;246;1138;-70
2020/12/11 00:41:40;;;;;;;;;;;20.30;34.80;;;;;;484066;246;998;-71
2020/12/11 00:43:41;;;;;;;;;;;20.40;34.70;;;;;;484116;246;941;-70
2020/12/11 00:45:42;;;;;;;;;;;20.30;34.70;;;;;;484102;246;1351;-70
2020/12/11 00:47:43;;;;;;;;;;;20.30;34.70;;;;;;484113;246;1040;-70
2020/12/11 00:49:45;;;;;;;;;;;20.30;34.70;;;;;;484169;246;955;-70
2020/12/11 00:51:46;;;;;;;;;;;20.40;34.80;;;;;;484156;246;974;-70
2020/12/11 00:53:47;;;;;;;;;;;20.40;34.70;;;;;;484187;246;1059;-70
2020/12/11 00:55:48;;;;;;;;;;;20.30;34.70;;;;;;484116;246;2192;-70
2020/12/11 00:57:50;;;;;;;;;;;20.20;34.90;;;;;;484162;246;1082;-70
2020/12/11 00:59:51;;;;;;;;;;;20.20;34.90;;;;;;484257;246;1056;-70
2020/12/11 01:01:52;;;;;;;;;;;20.20;35.00;;;;;;484150;246;1207;-70
2020/12/11 01:03:54;;;;;;;;;;;20.10;35.10;;;;;;484184;246;958;-70
2020/12/11 01:05:55;;;;;;;;;;;20.10;35.10;;;;;;484116;246;1073;-70
2020/12/11 01:07:56;;;;;;;;;;;20.10;35.10;;;;;;484102;246;976;-70
2020/12/11 01:09:57;;;;;;;;;;;20.10;35.00;;;;;;484123;246;1127;-70
2020/12/11 01:11:59;;;;;;;;;;;20.10;35.00;;;;;;484086;246;952;-70
2020/12/11 01:14:00;;;;;;;;;;;20.10;35.10;;;;;;484267;246;1047;-70
2020/12/11 01:16:01;;;;;;;;;;;20.10;35.10;;;;;;484130;246;2255;-70
2020/12/11 01:18:03;;;;;;;;;;;20.10;35.10;;;;;;484138;246;954;-70
2020/12/11 01:20:04;;;;;;;;;;;20.10;35.10;;;;;;484131;246;1267;-70
2020/12/11 01:22:05;;;;;;;;;;;20.10;35.10;;;;;;484091;246;998;-70
2020/12/11 01:24:06;;;;;;;;;;;20.10;35.10;;;;;;484175;246;988;-70
2020/12/11 01:26:08;;;;;;;;;;;20.10;35.00;;;;;;484155;246;1134;-70
2020/12/11 01:28:10;;;;;;;;;;;20.10;35.10;;;;;;484176;246;969;-70
2020/12/11 01:30:11;;;;;;;;;;;20.10;35.10;;;;;;484169;246;1010;-70
2020/12/11 01:32:12;;;;;;;;;;;20.10;35.10;;;;;;484171;246;1181;-70
2020/12/11 01:34:14;;;;;;;;;;;20.10;35.10;;;;;;484113;246;1114;-70
2020/12/11 01:36:15;;;;;;;;;;;20.10;35.00;;;;;;484132;246;2196;-70
2020/12/11 01:38:16;;;;;;;;;;;20.10;34.90;;;;;;484229;246;959;-70
2020/12/11 01:40:17;;;;;;;;;;;20.10;35.10;;;;;;484188;246;937;-70
2020/12/11 01:42:19;;;;;;;;;;;20.10;35.00;;;;;;484205;246;933;-70
2020/12/11 01:44:20;;;;;;;;;;;20.10;34.70;;;;;;484193;246;1152;-70
2020/12/11 01:46:21;;;;;;;;;;;20.10;34.60;;;;;;484175;246;1212;-70
2020/12/11 01:48:22;;;;;;;;;;;20.10;34.90;;;;;;484174;246;976;-70
2020/12/11 01:50:24;;;;;;;;;;;20.20;34.90;;;;;;484184;246;1412;-70
2020/12/11 01:52:25;;;;;;;;;;;20.20;34.90;;;;;;484191;246;980;-70
2020/12/11 01:54:26;;;;;;;;;;;20.20;34.90;;;;;;484172;246;1055;-70
2020/12/11 01:56:28;;;;;;;;;;;20.20;34.80;;;;;;484164;246;2188;-70
2020/12/11 01:58:29;;;;;;;;;;;20.20;34.80;;;;;;484110;246;977;-70
2020/12/11 02:00:30;;;;;;;;;;;20.20;34.90;;;;;;484142;246;974;-70
2020/12/11 02:02:31;;;;;;;;;;;20.10;35.00;;;;;;484168;246;1180;-70
2020/12/11 02:04:33;;;;;;;;;;;20.20;34.90;;;;;;484142;246;992;-70
2020/12/11 02:06:34;;;;;;;;;;;20.10;35.00;;;;;;484093;246;982;-70
2020/12/11 02:08:35;;;;;;;;;;;20.10;35.10;;;;;;484140;246;951;-70
2020/12/11 02:10:36;;;;;;;;;;;20.10;35.10;;;;;;484180;246;950;-70
2020/12/11 02:12:38;;;;;;;;;;;20.10;35.00;;;;;;484131;246;1143;-70
2020/12/11 02:14:39;;;;;;;;;;;20.20;35.10;;;;;;484121;246;1000;-70
2020/12/11 02:16:40;;;;;;;;;;;20.10;35.00;;;;;;484126;246;2207;-70
2020/12/11 02:18:42;;;;;;;;;;;20.10;35.10;;;;;;484153;246;957;-70
2020/12/11 02:20:43;;;;;;;;;;;20.10;35.00;;;;;;484099;246;951;-70
2020/12/11 02:22:45;;;;;;;;;;;20.20;34.90;;;;;;484105;246;973;-70
2020/12/11 02:24:45;;;;;;;;;;;20.10;34.90;;;;;;484111;246;2226;-70
2020/12/11 02:26:47;;;;;;;;;;;20.10;35.00;;;;;;484080;246;1199;-70
2020/12/11 02:28:48;;;;;;;;;;;20.10;35.00;;;;;;484202;246;1125;-70
2020/12/11 02:30:49;;;;;;;;;;;20.10;34.90;;;;;;484130;246;970;-70
2020/12/11 02:32:51;;;;;;;;;;;20.10;34.90;;;;;;484142;246;1149;-70
2020/12/11 02:34:52;;;;;;;;;;;20.00;34.90;;;;;;484073;246;1217;-70
2020/12/11 02:36:53;;;;;;;;;;;20.00;34.90;;;;;;484088;246;2192;-69
2020/12/11 02:38:54;;;;;;;;;;;20.00;35.00;;;;;;484121;246;979;-70
2020/12/11 02:40:56;;;;;;;;;;;20.00;35.10;;;;;;484117;246;1016;-70
2020/12/11 02:42:57;;;;;;;;;;;20.00;35.00;;;;;;484128;246;1106;-70
2020/12/11 02:44:59;;;;;;;;;;;19.90;34.90;;;;;;484120;246;1081;-70
2020/12/11 02:47:00;;;;;;;;;;;20.00;34.90;;;;;;484090;246;1214;-70
2020/12/11 02:49:01;;;;;;;;;;;20.00;34.90;;;;;;484141;246;1055;-70
2020/12/11 02:51:02;;;;;;;;;;;20.00;34.80;;;;;;484130;246;975;-70
2020/12/11 02:53:04;;;;;;;;;;;20.00;34.90;;;;;;484152;246;1160;-70
2020/12/11 02:55:05;;;;;;;;;;;20.00;34.80;;;;;;484174;246;1177;-70
2020/12/11 02:57:06;;;;;;;;;;;20.10;34.80;;;;;;484173;246;2239;-70
2020/12/11 02:59:07;;;;;;;;;;;20.10;34.70;;;;;;484107;246;986;-70
2020/12/11 03:01:09;;;;;;;;;;;20.10;34.70;;;;;;484103;246;1061;-70
2020/12/11 03:03:10;;;;;;;;;;;20.10;34.80;;;;;;484079;246;1239;-70
2020/12/11 03:05:11;;;;;;;;;;;20.10;34.70;;;;;;484094;246;1026;-70
2020/12/11 03:07:13;;;;;;;;;;;20.00;34.70;;;;;;484091;246;1022;-70
2020/12/11 03:09:14;;;;;;;;;;;20.00;34.80;;;;;;484174;246;957;-70
2020/12/11 03:11:15;;;;;;;;;;;20.00;34.80;;;;;;484181;246;1069;-70
2020/12/11 03:13:16;;;;;;;;;;;20.10;34.80;;;;;;484124;246;965;-70
2020/12/11 03:15:18;;;;;;;;;;;20.10;34.80;;;;;;484096;246;1018;-70
2020/12/11 03:17:19;;;;;;;;;;;20.10;34.80;;;;;;484107;246;2195;-70
2020/12/11 03:19:20;;;;;;;;;;;20.10;34.70;;;;;;484194;246;1003;-70
2020/12/11 03:21:22;;;;;;;;;;;20.10;34.60;;;;;;484199;246;1039;-70
2020/12/11 03:23:23;;;;;;;;;;;20.10;34.70;;;;;;484135;246;990;-70
2020/12/11 03:25:24;;;;;;;;;;;20.10;34.80;;;;;;484137;246;1137;-70
2020/12/11 03:27:25;;;;;;;;;;;20.10;34.80;;;;;;484123;246;1240;-70
2020/12/11 03:29:27;;;;;;;;;;;20.10;34.50;;;;;;484174;246;1254;-70
2020/12/11 03:31:28;;;;;;;;;;;20.10;34.60;;;;;;484153;246;1204;-70
2020/12/11 03:33:29;;;;;;;;;;;20.10;34.80;;;;;;484169;246;1233;-70
2020/12/11 03:35:30;;;;;;;;;;;20.20;34.90;;;;;;484162;246;966;-70
2020/12/11 03:37:32;;;;;;;;;;;20.10;34.80;;;;;;484170;246;2187;-70
2020/12/11 03:39:33;;;;;;;;;;;20.10;34.90;;;;;;484230;246;945;-70
2020/12/11 03:41:34;;;;;;;;;;;20.20;34.80;;;;;;484151;246;1046;-70
2020/12/11 03:43:36;;;;;;;;;;;20.20;34.90;;;;;;484106;246;1085;-70
2020/12/11 03:45:37;;;;;;;;;;;20.20;34.90;;;;;;484089;246;1043;-70
2020/12/11 03:47:40;;;;;;;;;;;20.10;34.90;;;;;;484099;242;1323;-70
2020/12/11 03:49:39;;;;;;;;;;;20.10;34.90;;;;;;484051;246;2196;-70
2020/12/11 03:51:41;;;;;;;;;;;20.00;35.00;;;;;;484095;246;965;-70
2020/12/11 03:53:42;;;;;;;;;;;20.10;35.10;;;;;;484176;246;946;-70
2020/12/11 03:55:43;;;;;;;;;;;20.10;35.10;;;;;;484144;246;1267;-70
2020/12/11 03:57:45;;;;;;;;;;;20.10;34.80;;;;;;484205;246;2207;-70
2020/12/11 03:59:46;;;;;;;;;;;20.10;34.80;;;;;;484290;246;971;-70
2020/12/11 04:01:47;;;;;;;;;;;20.10;34.80;;;;;;484161;246;972;-70
2020/12/11 04:03:48;;;;;;;;;;;20.10;34.90;;;;;;484097;246;1200;-70
2020/12/11 04:05:50;;;;;;;;;;;20.20;34.90;;;;;;484150;246;1237;-70
2020/12/11 04:07:51;;;;;;;;;;;20.10;34.90;;;;;;484108;246;974;-70
2020/12/11 04:09:52;;;;;;;;;;;20.10;34.90;;;;;;484145;246;974;-70
2020/12/11 04:11:54;;;;;;;;;;;20.10;34.90;;;;;;484136;246;1020;-70
2020/12/11 04:13:55;;;;;;;;;;;20.10;34.90;;;;;;484145;246;975;-70
2020/12/11 04:15:56;;;;;;;;;;;20.10;34.80;;;;;;484145;246;1075;-70
2020/12/11 04:17:57;;;;;;;;;;;20.10;35.00;;;;;;484181;246;2187;-71
2020/12/11 04:19:59;;;;;;;;;;;20.00;35.00;;;;;;484202;246;1032;-70
2020/12/11 04:22:00;;;;;;;;;;;20.10;35.00;;;;;;484123;246;1061;-70
2020/12/11 04:24:01;;;;;;;;;;;20.10;34.90;;;;;;484173;246;1001;-70
2020/12/11 04:26:02;;;;;;;;;;;20.10;34.90;;;;;;484109;246;947;-70
2020/12/11 04:28:04;;;;;;;;;;;20.10;34.90;;;;;;484179;246;1025;-70
2020/12/11 04:30:05;;;;;;;;;;;20.10;34.90;;;;;;484102;246;1241;-69
2020/12/11 04:32:06;;;;;;;;;;;20.10;34.60;;;;;;484211;246;1045;-69
2020/12/11 04:34:08;;;;;;;;;;;20.10;34.50;;;;;;484151;246;1221;-70
2020/12/11 04:36:09;;;;;;;;;;;20.20;34.20;;;;;;484138;246;961;-70
2020/12/11 04:38:10;;;;;;;;;;;20.10;34.80;;;;;;484192;246;2184;-70
2020/12/11 04:40:11;;;;;;;;;;;20.10;35.10;;;;;;484134;246;1219;-70
2020/12/11 04:42:13;;;;;;;;;;;20.10;35.00;;;;;;484094;246;1164;-70
2020/12/11 04:44:14;;;;;;;;;;;20.10;34.90;;;;;;484082;243;1258;-70
2020/12/11 04:46:16;;;;;;;;;;;20.10;34.90;;;;;;484071;246;942;-70
2020/12/11 04:48:17;;;;;;;;;;;20.10;34.90;;;;;;484086;246;1084;-70
2020/12/11 04:50:18;;;;;;;;;;;20.10;34.70;;;;;;484140;246;1242;-70
2020/12/11 04:52:20;;;;;;;;;;;20.10;34.80;;;;;;484156;246;1160;-70
2020/12/11 04:54:21;;;;;;;;;;;20.20;34.80;;;;;;484138;246;976;-70
2020/12/11 04:56:22;;;;;;;;;;;20.20;34.60;;;;;;484077;246;1017;-70
2020/12/11 04:58:24;;;;;;;;;;;20.30;34.50;;;;;;484113;246;2183;-70
2020/12/11 05:00:25;;;;;;;;;;;20.20;34.60;;;;;;484085;246;1050;-70
2020/12/11 05:02:28;;;;;;;;;;;20.10;34.50;;;;;;484085;242;1209;-70
2020/12/11 05:04:28;;;;;;;;;;;20.20;34.50;;;;;;484054;246;2273;-70
2020/12/11 05:06:29;;;;;;;;;;;20.20;34.40;;;;;;484125;246;1047;-70
2020/12/11 05:08:30;;;;;;;;;;;20.20;34.50;;;;;;484102;246;988;-70
2020/12/11 05:10:32;;;;;;;;;;;20.20;34.50;;;;;;484053;246;1259;-70
2020/12/11 05:12:33;;;;;;;;;;;20.20;34.50;;;;;;483992;246;970;-70
2020/12/11 05:14:34;;;;;;;;;;;20.10;34.40;;;;;;484049;246;1205;-70
2020/12/11 05:16:36;;;;;;;;;;;20.10;34.50;;;;;;483986;246;2191;-70
2020/12/11 05:18:37;;;;;;;;;;;20.10;34.50;;;;;;484005;246;1231;-70
2020/12/11 05:20:38;;;;;;;;;;;20.20;34.40;;;;;;484038;246;1190;-70
2020/12/11 05:22:40;;;;;;;;;;;20.20;34.50;;;;;;483962;246;1208;-70
2020/12/11 05:24:42;;;;;;;;;;;20.10;34.60;;;;;;484022;246;969;-70
2020/12/11 05:26:44;;;;;;;;;;;20.10;34.60;;;;;;484004;246;1213;-70
2020/12/11 05:28:45;;;;;;;;;;;20.10;34.70;;;;;;484073;246;1189;-70
2020/12/11 05:30:46;;;;;;;;;;;20.10;34.60;;;;;;484048;246;998;-70
2020/12/11 05:32:48;;;;;;;;;;;20.10;34.60;;;;;;484046;246;1244;-70
2020/12/11 05:34:49;;;;;;;;;;;20.10;34.60;;;;;;484094;246;1212;-70
2020/12/11 05:36:50;;;;;;;;;;;20.10;34.60;;;;;;484030;246;2176;-69
2020/12/11 05:38:51;;;;;;;;;;;20.00;34.70;;;;;;483992;246;1030;-70
2020/12/11 05:40:54;;;;;;;;;;;20.00;34.70;;;;;;483940;246;1169;-70
2020/12/11 05:42:54;;;;;;;;;;;20.00;34.80;;;;;;483810;246;2224;-70
2020/12/11 05:44:55;;;;;;;;;;;20.00;34.80;;;;;;483888;246;1294;-69
2020/12/11 05:46:56;;;;;;;;;;;20.10;34.60;;;;;;483953;246;1001;-69
2020/12/11 05:48:59;;;;;;;;;;;20.10;34.70;;;;;;484019;246;1043;-69
2020/12/11 05:50:59;;;;;;;;;;;20.10;34.70;;;;;;483889;246;2086;-70
2020/12/11 05:53:01;;;;;;;;;;;20.10;34.80;;;;;;483964;246;1044;-70
2020/12/11 05:55:02;;;;;;;;;;;20.10;34.70;;;;;;483906;246;1207;-69
2020/12/11 05:57:03;;;;;;;;;;;20.10;34.80;;;;;;483992;246;2183;-69
2020/12/11 05:59:05;;;;;;;;;;;20.10;34.70;;;;;;483994;246;1106;-69
2020/12/11 06:01:06;;;;;;;;;;;20.10;34.60;;;;;;483959;246;1054;-69
2020/12/11 06:03:07;;;;;;;;;;;20.10;34.70;;;;;;483946;246;1295;-69
2020/12/11 06:05:09;;;;;;;;;;;20.10;34.70;;;;;;483910;246;1123;-69
2020/12/11 06:07:10;;;;;;;;;;;20.10;34.70;;;;;;483921;246;1388;-69
2020/12/11 06:09:11;;;;;;;;;;;20.00;34.70;;;;;;483933;246;1042;-69
2020/12/11 06:11:12;;;;;;;;;;;20.00;34.80;;;;;;483890;246;1158;-70
2020/12/11 06:13:14;;;;;;;;;;;20.10;34.70;;;;;;483878;246;1099;-70
2020/12/11 06:15:15;;;;;;;;;;;20.10;34.30;;;;;;483869;246;971;-70
2020/12/11 06:17:16;;;;;;;;;;;20.10;34.70;;;;;;483922;246;2184;-70
2020/12/11 06:19:18;;;;;;;;;;;20.10;34.80;;;;;;483968;246;1051;-70
2020/12/11 06:21:19;;;;;;;;;;;20.10;34.90;;;;;;483918;246;1219;-70
2020/12/11 06:23:20;;;;;;;;;;;20.10;34.90;;;;;;483821;246;1022;-70
2020/12/11 06:25:21;;;;;;;;;;;20.10;35.00;;;;;;483793;246;1099;-69
2020/12/11 06:27:23;;;;;;;;;;;20.10;34.90;;;;;;483836;246;1037;-70
2020/12/11 06:29:24;;;;;;;;;;;20.10;34.80;;;;;;483854;246;1090;-70
2020/12/11 06:31:25;;;;;;;;;;;20.10;34.80;;;;;;483839;246;994;-70
2020/12/11 06:33:26;;;;;;;;;;;20.00;34.80;;;;;;483868;246;964;-71
2020/12/11 06:35:28;;;;;;;;;;;20.00;34.80;;;;;;483850;246;1155;-70
2020/12/11 06:37:29;;;;;;;;;;;20.00;34.90;;;;;;483821;246;2176;-70
2020/12/11 06:39:30;;;;;;;;;;;20.10;34.90;;;;;;483798;246;1239;-70
2020/12/11 06:41:32;;;;;;;;;;;20.10;34.90;;;;;;483742;246;1215;-70
2020/12/11 06:43:33;;;;;;;;;;;20.10;34.90;;;;;;483759;246;1029;-70
2020/12/11 06:45:34;;;;;;;;;;;20.10;34.90;;;;;;483675;246;1155;-71
2020/12/11 06:47:35;;;;;;;;;;;20.10;34.90;;;;;;483763;246;1050;-70
2020/12/11 06:49:37;;;;;;;;;;;20.10;34.90;;;;;;483789;246;1044;-70
2020/12/11 06:51:38;;;;;;;;;;;20.10;34.90;;;;;;483764;246;1212;-71
2020/12/11 06:53:39;;;;;;;;;;;20.10;34.90;;;;;;483741;246;1041;-70
2020/12/11 06:55:42;;;;;;;;;;;20.10;35.00;;;;;;483768;246;1042;-70
2020/12/11 06:57:43;;;;;;;;;;;20.10;35.00;;;;;;483876;246;2195;-70
2020/12/11 06:59:45;;;;;;;;;;;20.00;35.00;;;;;;483834;246;977;-70
2020/12/11 07:01:46;;;;;;;;;;;20.10;35.00;;;;;;483676;246;1023;-70
2020/12/11 07:03:47;;;;;;;;;;;20.10;35.00;;;;;;483510;246;1085;-70
2020/12/11 07:05:48;;;;;;;;;;;20.10;34.90;;;;;;483608;246;1177;-70
2020/12/11 07:07:50;;;;;;;;;;;20.10;35.00;;;;;;483681;246;1168;-70
2020/12/11 07:09:51;;;;;;;;;;;20.20;34.90;;;;;;483704;246;1054;-70
2020/12/11 07:11:53;;;;;;;;;;;20.10;34.80;;;;;;483757;246;984;-70
2020/12/11 07:13:54;;;;;;;;;;;20.10;34.90;;;;;;483760;246;1098;-70
2020/12/11 07:15:55;;;;;;;;;;;20.10;34.90;;;;;;483655;246;1054;-70
2020/12/11 07:17:57;;;;;;;;;;;20.10;35.00;;;;;;483482;246;2188;-70
2020/12/11 07:19:58;;;;;;;;;;;20.10;35.10;;;;;;483624;246;1195;-70
2020/12/11 07:21:59;;;;;;;;;;;20.00;35.00;;;;;;483652;246;1205;-70
2020/12/11 07:24:00;;;;;;;;;;;20.10;35.10;;;;;;483602;246;1012;-69
2020/12/11 07:26:02;;;;;;;;;;;20.10;35.00;;;;;;483635;246;1023;-70
2020/12/11 07:28:03;;;;;;;;;;;20.20;34.90;;;;;;483576;246;1219;-70
2020/12/11 07:30:04;;;;;;;;;;;20.10;34.80;;;;;;483624;246;1219;-70
2020/12/11 07:32:05;;;;;;;;;;;20.20;34.90;;;;;;483619;246;1356;-70
2020/12/11 07:34:07;;;;;;;;;;;20.20;34.70;;;;;;483586;246;1056;-70
2020/12/11 07:36:08;;;;;;;;;;;20.20;34.80;;;;;;483594;246;1200;-70
2020/12/11 07:38:09;;;;;;;;;;;20.20;34.40;;;;;;483572;246;2179;-70
2020/12/11 07:40:11;;;;;;;;;;;20.20;34.90;;;;;;483576;246;1170;-71
2020/12/11 07:42:12;;;;;;;;;;;20.10;35.00;;;;;;483624;246;1096;-70
2020/12/11 07:44:16;;;;;;;;;;;20.10;35.10;;;;;;483581;246;1111;-70
2020/12/11 07:46:14;;;;;;;;;;;20.20;35.00;;;;;;483317;246;2195;-70
2020/12/11 07:48:16;;;;;;;;;;;20.10;35.00;;;;;;483484;246;1037;-69
2020/12/11 07:50:17;;;;;;;;;;;20.10;35.10;;;;;;483320;246;1100;-71
2020/12/11 07:52:22;;;;;;;;;;;20.20;35.00;;;;;;483646;246;1203;-70
2020/12/11 07:54:21;;;;;;;;;;;20.10;35.00;;;;;;483509;246;2033;-70
2020/12/11 07:56:23;;;;;;;;;;;20.20;35.10;;;;;;483509;246;1087;-70
2020/12/11 07:58:24;;;;;;;;;;;20.20;35.10;;;;;;483412;246;2191;-70
2020/12/11 08:00:25;;;;;;;;;;;20.10;35.10;;;;;;483222;246;1272;-70
2020/12/11 08:02:26;;;;;;;;;;;20.00;35.20;;;;;;483378;246;1158;-70
2020/12/11 08:04:28;;;;;;;;;;;20.00;35.20;;;;;;483411;246;1077;-70
2020/12/11 08:06:29;;;;;;;;;;;20.10;34.80;;;;;;483400;246;1305;-70
2020/12/11 08:08:30;;;;;;;;;;;20.10;34.80;;;;;;483533;246;1040;-70
2020/12/11 08:10:31;;;;;;;;;;;20.10;35.10;;;;;;483481;246;1044;-70
2020/12/11 08:12:33;;;;;;;;;;;20.20;35.20;;;;;;483291;246;1032;-70
2020/12/11 08:14:34;;;;;;;;;;;20.10;35.10;;;;;;483393;246;1079;-70
2020/12/11 08:16:35;;;;;;;;;;;20.10;35.10;;;;;;483476;246;1292;-70
2020/12/11 08:18:37;;;;;;;;;;;20.10;35.20;;;;;;483506;246;2207;-68
2020/12/11 08:20:38;;;;;;;;;;;20.20;35.10;;;;;;483509;246;1053;-70
2020/12/11 08:22:39;;;;;;;;;;;20.20;35.00;;;;;;483457;246;1311;-69
2020/12/11 08:24:40;;;;;;;;;;;20.20;35.00;;;;;;483437;246;1258;-70
2020/12/11 08:26:42;;;;;;;;;;;20.10;35.00;;;;;;483409;246;1239;-70
2020/12/11 08:28:44;;;;;;;;;;;20.20;35.10;;;;;;483286;246;1106;-70
2020/12/11 08:30:46;;;;;;;;;;;20.20;35.10;;;;;;483374;246;1139;-70
2020/12/11 08:32:48;;;;;;;;;;;20.20;35.00;;;;;;483359;246;1075;-70
2020/12/11 08:34:49;;;;;;;;;;;20.20;34.90;;;;;;483378;246;1164;-70
2020/12/11 08:36:51;;;;;;;;;;;20.20;35.00;;;;;;483236;246;1204;-70
2020/12/11 08:38:51;;;;;;;;;;;20.10;35.00;;;;;;483266;246;2196;-70
2020/12/11 08:40:53;;;;;;;;;;;20.10;35.10;;;;;;483337;246;1124;-70
2020/12/11 08:42:55;;;;;;;;;;;20.10;35.10;;;;;;483274;246;1119;-70
2020/12/11 08:47:38;;;;;;;;;;;20.20;35.00;;;;;;483272;246;1222;-70
2020/12/11 08:49:34;;;;;;;;;;;20.20;35.10;;;;;;482709;246;2249;-70
2020/12/11 08:51:35;;;;;;;;;;;20.20;35.00;;;;;;483368;246;1282;-70
2020/12/11 08:53:39;;;;;;;;;;;20.20;34.90;;;;;;483332;246;1189;-70
2020/12/11 08:55:38;;;;;;;;;;;20.10;34.90;;;;;;483161;246;2215;-70
2020/12/11 08:57:39;;;;;;;;;;;20.20;35.00;;;;;;483537;246;1052;-70
2020/12/11 08:59:41;;;;;;;;;;;20.20;34.90;;;;;;483364;246;2176;-70
2020/12/11 09:01:42;;;;;;;;;;;20.20;34.90;;;;;;483321;246;1739;-69
2020/12/11 09:03:43;;;;;;;;;;;20.20;34.90;;;;;;483361;246;1311;-70
2020/12/11 09:05:45;;;;;;;;;;;20.20;34.80;;;;;;483351;246;1265;-70
2020/12/11 09:07:46;;;;;;;;;;;20.20;34.90;;;;;;483193;246;1228;-70
2020/12/11 09:09:47;;;;;;;;;;;20.20;34.80;;;;;;483218;246;1237;-70
2020/12/11 09:11:48;;;;;;;;;;;20.20;34.90;;;;;;483262;246;1046;-70
2020/12/11 09:13:50;;;;;;;;;;;20.20;34.80;;;;;;483303;246;1018;-69
2020/12/11 09:15:51;;;;;;;;;;;20.20;34.90;;;;;;483297;246;1129;-69
2020/12/11 09:17:53;;;;;;;;;;;20.20;34.90;;;;;;483294;246;2176;-69
2020/12/11 09:19:54;;;;;;;;;;;20.20;35.10;;;;;;483233;242;1124;-69
2020/12/11 09:22:00;;;;;;;;;;;20.20;35.00;;;;;;483174;246;1201;-70
2020/12/11 09:23:57;;;;;;;;;;;20.30;35.00;;;;;;482956;246;2235;-69
2020/12/11 09:25:58;;;;;;;;;;;20.30;34.80;;;;;;483296;246;1148;-70
2020/12/11 09:28:01;;;;;;;;;;;20.20;34.90;;;;;;483245;246;1165;-68
2020/12/11 09:30:12;;;;;;;;;;;20.20;35.00;;;;;;483079;246;1948;-69
2020/12/11 09:32:07;;;;;;;;;;;20.20;34.90;;;;;;482677;246;2145;-69
2020/12/11 09:34:08;;;;;;;;;;;20.20;34.70;;;;;;483190;246;2062;-70
2020/12/11 09:36:09;;;;;;;;;;;20.20;34.70;;;;;;483245;246;1186;-70
2020/12/11 09:38:10;;;;;;;;;;;20.20;34.90;;;;;;483198;246;2168;-69
2020/12/11 09:40:12;;;;;;;;;;;20.30;34.90;;;;;;483099;246;1105;-69
2020/12/11 09:42:27;;;;;;;;;;;20.30;34.90;;;;;;483302;246;1130;-70
2020/12/11 09:44:40;;;;;;;;;;;20.20;34.80;;;;;;482417;246;2259;-69
2020/12/11 09:46:39;;;;;;;;;;;20.30;34.60;;;;;;482652;246;1974;-70
2020/12/11 09:48:40;;;;;;;;;;;20.20;34.40;;;;;;482859;246;2108;-70
2020/12/11 09:50:48;;;;;;;;;;;20.20;34.40;;;;;;483135;246;2218;-69
2020/12/11 09:52:55;;;;;;;;;;;20.20;34.40;;;;;;483036;246;2226;-69
2020/12/11 09:54:51;;;;;;;;;;;20.20;34.20;;;;;;482818;246;2351;-69
2020/12/11 09:56:52;;;;;;;;;;;20.20;34.30;;;;;;483315;246;1161;-69
2020/12/11 09:58:57;;;;;;;;;;;20.20;34.10;;;;;;483311;246;2206;-69
2020/12/11 10:00:55;;;;;;;;;;;20.30;34.10;;;;;;483070;246;2136;-69
2020/12/11 10:02:59;;;;;;;;;;;20.30;34.00;;;;;;483131;246;1187;-69
2020/12/11 10:04:58;;;;;;;;;;;20.40;33.70;;;;;;483034;246;2196;-69
2020/12/11 10:06:59;;;;;;;;;;;20.40;34.00;;;;;;483114;246;1119;-69
2020/12/11 10:09:00;;;;;;;;;;;20.20;34.00;;;;;;483117;246;1207;-70
2020/12/11 10:11:02;;;;;;;;;;;20.30;34.20;;;;;;483101;246;1056;-69
2020/12/11 10:13:04;;;;;;;;;;;20.30;34.20;;;;;;483122;246;1087;-69
2020/12/11 10:15:07;;;;;;;;;;;20.30;34.30;;;;;;482996;246;2253;-69
2020/12/11 10:17:09;;;;;;;;;;;20.30;34.20;;;;;;483012;246;2188;-69
2020/12/11 10:19:07;;;;;;;;;;;20.20;34.30;;;;;;483039;246;2212;-69
2020/12/11 10:21:09;;;;;;;;;;;20.20;34.50;;;;;;483201;246;1089;-68
2020/12/11 10:23:10;;;;;;;;;;;20.30;34.50;;;;;;483385;246;1198;-68
2020/12/11 10:25:11;;;;;;;;;;;20.30;34.50;;;;;;483441;246;1140;-69
2020/12/11 10:27:13;;;;;;;;;;;20.40;34.40;;;;;;483397;246;1104;-69
2020/12/11 10:29:14;;;;;;;;;;;20.30;34.40;;;;;;483300;246;1158;-69
2020/12/11 10:31:15;;;;;;;;;;;20.40;34.50;;;;;;483341;246;1059;-68
2020/12/11 10:33:16;;;;;;;;;;;20.30;34.50;;;;;;483418;246;1073;-69
2020/12/11 10:35:18;;;;;;;;;;;20.30;34.70;;;;;;483288;246;1090;-69
2020/12/11 10:37:22;;;;;;;;;;;20.30;34.80;;;;;;483443;246;1121;-69
2020/12/11 10:39:23;;;;;;;;;;;20.30;34.80;;;;;;483502;246;2200;-69
2020/12/11 10:41:24;;;;;;;;;;;20.30;34.70;;;;;;483449;246;1232;-69
2020/12/11 10:43:25;;;;;;;;;;;20.30;34.80;;;;;;483340;246;1088;-69
2020/12/11 10:45:27;;;;;;;;;;;20.40;34.80;;;;;;483304;246;1058;-69
2020/12/11 10:47:28;;;;;;;;;;;20.40;34.70;;;;;;483407;246;1113;-69
2020/12/11 10:49:29;;;;;;;;;;;20.30;34.70;;;;;;483372;246;1053;-69
2020/12/11 10:51:31;;;;;;;;;;;20.30;34.80;;;;;;483410;242;1289;-69
2020/12/11 10:53:33;;;;;;;;;;;20.30;34.80;;;;;;483355;246;2164;-69
2020/12/11 10:55:33;;;;;;;;;;;20.30;34.80;;;;;;483243;246;2220;-69
2020/12/11 10:57:34;;;;;;;;;;;20.30;34.90;;;;;;483337;246;1164;-69
2020/12/11 10:59:36;;;;;;;;;;;20.30;34.90;;;;;;483229;246;2192;-69
2020/12/11 11:01:37;;;;;;;;;;;20.30;34.90;;;;;;483347;246;1069;-69
2020/12/11 11:03:39;;;;;;;;;;;20.30;34.80;;;;;;483334;246;1201;-69
2020/12/11 11:05:40;;;;;;;;;;;20.30;34.80;;;;;;483265;246;1144;-69
2020/12/11 11:07:42;;;;;;;;;;;20.30;34.70;;;;;;483239;246;1137;-69
2020/12/11 11:09:46;;;;;;;;;;;20.30;34.70;;;;;;483347;246;2121;-69
2020/12/11 11:11:49;;;;;;;;;;;20.30;34.80;;;;;;483192;246;2284;-69
2020/12/11 11:13:57;;;;;;;;;;;20.30;34.90;;;;;;483052;246;2112;-70
2020/12/11 11:15:52;;;;;;;;;;;20.30;34.70;;;;;;482765;246;2184;-71
2020/12/11 11:18:12;;;;;;;;;;;20.30;34.70;;;;;;483500;246;2060;-71
2020/12/11 11:20:17;;;;;;;;;;;20.30;34.80;;;;;;482864;246;2228;-71
2020/12/11 11:22:24;;;;;;;;;;;20.30;34.90;;;;;;482931;246;2188;-71
2020/12/11 11:24:40;;;;;;;;;;;20.30;34.90;;;;;;482998;246;2260;-72
2020/12/11 11:26:46;;;;;;;;;;;20.30;34.90;;;;;;482287;246;2291;-71
2020/12/11 11:28:45;;;;;;;;;;;20.30;35.00;;;;;;483416;246;2262;-72
2020/12/11 11:30:46;;;;;;;;;;;20.30;34.90;;;;;;483480;246;1131;-71
2020/12/11 11:32:50;;;;;;;;;;;20.20;34.90;;;;;;483404;246;1095;-69
2020/12/11 11:34:55;;;;;;;;;;;20.30;33.90;;;;;;501885;234;1279;-69
2020/12/11 11:36:56;;;;;;;;;;;20.50;34.40;;;;;;490983;241;1187;-69
2020/12/11 11:38:58;;;;;;;;;;;20.50;34.40;;;;;;490925;240;1090;-69
2020/12/11 11:40:59;;;;;;;;;;;20.50;34.50;;;;;;490900;240;1220;-69
2020/12/11 11:43:00;;;;;;;;;;;20.40;34.40;;;;;;491008;240;1253;-69
2020/12/11 11:45:03;;;;;;;;;;;20.40;34.20;;;;;;491100;240;1072;-69
2020/12/11 11:47:03;;;;;;;;;;;20.40;34.20;;;;;;490945;241;1410;-68
2020/12/11 11:49:04;;;;;;;;;;;20.40;34.60;;;;;;491045;240;1199;-69
2020/12/11 11:51:09;;;;;;;;;;;20.40;34.60;;;;;;491047;241;1074;-69
2020/12/11 11:53:13;;;;;;;;;;;20.40;34.70;;;;;;490841;242;2175;-69
2020/12/11 11:55:13;;;;;;;;;;;20.40;34.70;;;;;;490901;242;1402;-68
2020/12/11 11:57:13;;;;;;;;;;;20.40;34.60;;;;;;491021;242;1523;-68
2020/12/11 11:59:14;;;;;;;;;;;20.50;34.50;;;;;;491065;240;1149;-68
2020/12/11 12:01:16;;;;;;;;;;;20.40;34.50;;;;;;490955;240;1142;-69